createdAt,value
2023-02-09T00:02:15.453Z,2.08
2023-02-09T00:04:43.547Z,2.05
2023-02-09T00:07:11.892Z,2.01
2023-02-09T00:09:40.140Z,1.99
2023-02-09T00:12:28.079Z,1.96
2023-02-09T00:14:56.461Z,1.90
2023-02-09T00:17:24.467Z,1.85
2023-02-09T00:19:55.134Z,1.81
2023-02-09T00:22:23.221Z,1.86
2023-02-09T00:24:51.458Z,1.99
2023-02-09T00:27:19.742Z,2.10
2023-02-09T00:29:47.791Z,2.11
2023-02-09T00:32:18.188Z,2.06
2023-02-09T00:34:46.545Z,2.03
2023-02-09T00:37:14.725Z,1.98
2023-02-09T00:39:42.798Z,1.94
2023-02-09T00:42:11.517Z,1.90
2023-02-09T00:44:40.457Z,1.84
2023-02-09T00:47:09.460Z,1.79
2023-02-09T00:49:40.266Z,1.74
2023-02-09T00:52:10.008Z,1.68
2023-02-09T00:54:38.851Z,1.67
2023-02-09T00:57:06.877Z,1.79
2023-02-09T00:59:35.984Z,1.91
2023-02-09T01:02:05.011Z,1.97
2023-02-09T01:04:33.991Z,1.93
2023-02-09T01:07:02.306Z,1.89
2023-02-09T01:09:30.667Z,1.83
2023-02-09T01:12:00.300Z,1.78
2023-02-09T01:14:28.774Z,1.73
2023-02-09T01:16:58.672Z,1.66
2023-02-09T01:19:27.393Z,1.59
2023-02-09T01:21:56.244Z,1.50
2023-02-09T01:24:24.628Z,1.44
2023-02-09T01:26:52.840Z,1.44
2023-02-09T01:29:21.235Z,1.57
2023-02-09T01:31:49.798Z,1.68
2023-02-09T01:34:19.138Z,1.76
2023-02-09T01:36:51.039Z,1.72
2023-02-09T01:39:19.841Z,1.68
2023-02-09T01:41:47.874Z,1.64
2023-02-09T01:44:16.961Z,1.61
2023-02-09T01:46:47.889Z,1.57
2023-02-09T01:49:21.876Z,1.51
2023-02-09T01:51:56.194Z,1.46
2023-02-09T01:54:29.309Z,1.41
2023-02-09T01:57:02.993Z,1.37
2023-02-09T01:59:31.332Z,1.48
2023-02-09T02:01:59.376Z,1.64
2023-02-09T02:04:27.504Z,1.75
2023-02-09T02:06:55.734Z,1.75
2023-02-09T02:09:23.778Z,1.71
2023-02-09T02:11:55.729Z,1.67
2023-02-09T02:14:30.016Z,1.65
2023-02-09T02:17:05.953Z,1.61
2023-02-09T02:19:53.828Z,1.55
2023-02-09T02:22:30.581Z,1.51
2023-02-09T02:25:37.341Z,1.48
2023-02-09T02:28:24.442Z,1.45
2023-02-09T02:31:28.362Z,1.49
2023-02-09T02:34:21.336Z,1.71
2023-02-09T02:37:14.212Z,1.83
2023-02-09T02:40:07.778Z,1.82
2023-02-09T02:42:56.764Z,1.79
2023-02-09T02:45:41.848Z,1.75
2023-02-09T02:48:17.155Z,1.68
2023-02-09T02:50:55.983Z,1.59
2023-02-09T02:53:26.865Z,1.49
2023-02-09T02:55:55.808Z,1.41
2023-02-09T02:58:24.071Z,1.33
2023-02-09T03:00:53.939Z,1.30
2023-02-09T03:03:23.115Z,1.42
2023-02-09T03:05:51.160Z,1.61
2023-02-09T03:08:19.915Z,1.76
2023-02-09T03:10:48.219Z,1.81
2023-02-09T03:13:39.121Z,1.80
2023-02-09T03:16:12.229Z,1.78
2023-02-09T03:19:02.550Z,1.76
2023-02-09T03:21:36.778Z,1.74
2023-02-09T03:24:08.957Z,1.70
2023-02-09T03:26:40.381Z,1.66
2023-02-09T03:29:08.530Z,1.63
2023-02-09T03:31:36.874Z,1.59
2023-02-09T03:34:04.980Z,1.55
2023-02-09T03:36:36.257Z,1.63
2023-02-09T03:39:04.356Z,1.78
2023-02-09T03:41:32.745Z,1.88
2023-02-09T03:44:19.733Z,1.90
2023-02-09T03:46:48.365Z,1.88
2023-02-09T03:49:16.598Z,1.84
2023-02-09T03:51:44.773Z,1.81
2023-02-09T03:54:12.908Z,1.79
2023-02-09T03:56:40.914Z,1.75
2023-02-09T03:59:09.502Z,1.72
2023-02-09T04:01:37.812Z,1.69
2023-02-09T04:04:06.182Z,1.66
2023-02-09T04:06:34.828Z,1.62
2023-02-09T04:09:04.684Z,1.63
2023-02-09T04:11:32.961Z,1.75
2023-02-09T04:14:02.197Z,1.90
2023-02-09T04:16:33.724Z,1.96
2023-02-09T04:19:02.933Z,1.93
2023-02-09T04:21:31.381Z,1.89
2023-02-09T04:24:00.178Z,1.85
2023-02-09T04:26:28.168Z,1.81
2023-02-09T04:28:56.513Z,1.76
2023-02-09T04:31:24.847Z,1.70
2023-02-09T04:33:53.134Z,1.61
2023-02-09T04:36:23.487Z,1.54
2023-02-09T04:38:52.385Z,1.48
2023-02-09T04:41:20.500Z,1.47
2023-02-09T04:43:48.739Z,1.60
2023-02-09T04:46:17.836Z,1.73
2023-02-09T04:48:46.134Z,1.78
2023-02-09T04:51:14.288Z,1.75
2023-02-09T04:53:42.730Z,1.73
2023-02-09T04:56:15.115Z,1.68
2023-02-09T04:59:02.678Z,1.65
2023-02-09T05:01:31.652Z,1.59
2023-02-09T05:04:00.146Z,1.54
2023-02-09T05:06:30.730Z,1.50
2023-02-09T05:08:58.890Z,1.44
2023-02-09T05:11:27.020Z,1.37
2023-02-09T05:13:55.802Z,1.46
2023-02-09T05:16:23.862Z,1.63
2023-02-09T05:18:52.047Z,1.77
2023-02-09T05:21:20.194Z,1.80
2023-02-09T05:23:48.421Z,1.80
2023-02-09T05:26:16.457Z,1.78
2023-02-09T05:28:45.162Z,1.77
2023-02-09T05:31:13.263Z,1.75
2023-02-09T05:33:41.393Z,1.73
2023-02-09T05:36:12.312Z,1.71
2023-02-09T05:38:41.266Z,1.71
2023-02-09T05:41:11.048Z,1.72
2023-02-09T05:43:39.373Z,1.74
2023-02-09T05:46:08.566Z,1.77
2023-02-09T05:48:37.144Z,1.89
2023-02-09T05:51:05.519Z,2.12
2023-02-09T05:53:35.421Z,2.33
2023-02-09T05:56:03.624Z,2.42
2023-02-09T05:58:31.785Z,2.48
2023-02-09T06:00:59.809Z,2.54
2023-02-09T06:03:28.019Z,2.59
2023-02-09T06:05:56.295Z,2.64
2023-02-09T06:08:24.945Z,2.67
2023-02-09T06:10:54.600Z,2.68
2023-02-09T06:13:23.161Z,2.68
2023-02-09T06:15:51.475Z,2.70
2023-02-09T06:18:19.838Z,2.71
2023-02-09T06:20:48.286Z,2.69
2023-02-09T06:23:17.972Z,2.66
2023-02-09T06:25:46.201Z,2.67
2023-02-09T06:28:14.318Z,2.68
2023-02-09T06:30:42.508Z,2.68
2023-02-09T06:33:10.851Z,2.70
2023-02-09T06:35:39.172Z,2.74
2023-02-09T06:38:07.438Z,2.77
2023-02-09T06:40:35.663Z,2.81
2023-02-09T06:43:04.125Z,2.86
2023-02-09T06:45:32.642Z,2.91
2023-02-09T06:48:00.911Z,2.98
2023-02-09T06:50:29.507Z,3.06
2023-02-09T06:52:58.670Z,3.10
2023-02-09T06:55:26.814Z,3.14
2023-02-09T06:57:55.713Z,3.17
2023-02-09T07:00:24.175Z,3.23
2023-02-09T07:02:53.278Z,3.34
2023-02-09T07:05:22.554Z,3.46
2023-02-09T07:07:50.741Z,3.57
2023-02-09T07:10:20.474Z,3.71
2023-02-09T07:12:51.906Z,3.83
2023-02-09T07:15:20.135Z,3.94
2023-02-09T07:17:48.568Z,4.05
2023-02-09T07:20:17.630Z,4.16
2023-02-09T07:22:45.862Z,4.26
2023-02-09T07:25:14.202Z,4.37
2023-02-09T07:27:45.544Z,4.48
2023-02-09T07:30:14.337Z,4.58
2023-02-09T07:32:42.421Z,4.67
2023-02-09T07:35:10.596Z,4.74
2023-02-09T07:37:38.824Z,4.82
2023-02-09T07:40:07.768Z,4.89
2023-02-09T07:42:35.813Z,4.98
2023-02-09T07:45:05.080Z,5.06
2023-02-09T07:47:34.956Z,5.17
2023-02-09T07:50:03.028Z,5.29
2023-02-09T07:52:31.136Z,5.42
2023-02-09T07:54:59.288Z,5.55
2023-02-09T07:57:27.762Z,5.67
2023-02-09T07:59:55.880Z,5.78
2023-02-09T08:02:31.390Z,5.84
2023-02-09T08:05:00.282Z,5.84
2023-02-09T08:07:29.999Z,5.85
2023-02-09T08:09:58.299Z,5.91
2023-02-09T08:12:47.956Z,6.02
2023-02-09T08:15:16.146Z,6.20
2023-02-09T08:17:44.738Z,6.35
2023-02-09T08:20:15.822Z,6.48
2023-02-09T08:22:46.684Z,6.62
2023-02-09T08:25:19.513Z,6.75
2023-02-09T08:27:47.864Z,6.91
2023-02-09T08:30:20.196Z,7.06
2023-02-09T08:32:49.981Z,7.19
2023-02-09T08:35:18.223Z,7.32
2023-02-09T08:37:46.573Z,7.46
2023-02-09T08:40:15.414Z,7.60
2023-02-09T08:42:43.753Z,7.72
2023-02-09T08:45:12.301Z,7.84
2023-02-09T08:47:40.430Z,7.92
2023-02-09T08:50:09.612Z,7.98
2023-02-09T08:52:38.287Z,8.07
2023-02-09T08:55:07.600Z,8.16
2023-02-09T08:57:44.029Z,8.28
2023-02-09T09:00:14.604Z,8.38
2023-02-09T09:02:42.910Z,8.46
2023-02-09T09:05:11.264Z,8.53
2023-02-09T09:07:39.368Z,8.61
2023-02-09T09:10:09.078Z,8.67
2023-02-09T09:12:37.280Z,8.74
2023-02-09T09:15:05.959Z,8.82
2023-02-09T09:17:35.616Z,8.93
2023-02-09T09:20:05.285Z,9.07
2023-02-09T09:22:36.749Z,9.20
2023-02-09T09:25:06.092Z,9.30
2023-02-09T09:27:36.162Z,9.39
2023-02-09T09:30:05.417Z,9.50
2023-02-09T09:32:34.553Z,9.61
2023-02-09T09:35:04.065Z,9.71
2023-02-09T09:37:32.703Z,9.84
2023-02-09T09:40:00.873Z,9.98
2023-02-09T09:42:41.900Z,10.14
2023-02-09T09:45:14.898Z,10.28
2023-02-09T09:47:43.637Z,10.40
2023-02-09T09:50:15.203Z,10.52
2023-02-09T09:52:55.998Z,10.63
2023-02-09T09:55:28.809Z,10.76
2023-02-09T09:57:58.881Z,10.87
2023-02-09T10:00:40.868Z,10.94
2023-02-09T10:03:17.124Z,11.04
2023-02-09T10:05:47.744Z,11.14
2023-02-09T10:08:33.727Z,11.24
2023-02-09T10:11:10.070Z,11.32
2023-02-09T10:13:44.682Z,11.39
2023-02-09T10:16:27.450Z,11.42
2023-02-09T10:19:00.103Z,11.44
2023-02-09T10:21:30.247Z,11.45
2023-02-09T10:24:00.064Z,11.47
2023-02-09T10:26:31.148Z,11.43
2023-02-09T10:29:07.401Z,11.36
2023-02-09T10:32:03.982Z,11.29
2023-02-09T10:34:52.281Z,11.29
2023-02-09T10:37:38.052Z,11.32
2023-02-09T10:40:09.458Z,11.35
2023-02-09T10:42:38.294Z,11.42
2023-02-09T10:45:15.486Z,11.53
2023-02-09T10:47:43.519Z,11.61
2023-02-09T10:50:12.273Z,11.70
2023-02-09T10:53:20.351Z,11.81
2023-02-09T10:58:35.447Z,10.76
2023-02-09T11:01:16.225Z,11.91
2023-02-09T11:04:05.868Z,12.12
2023-02-09T11:06:55.201Z,12.19
2023-02-09T11:09:56.728Z,12.22
2023-02-09T11:12:25.367Z,12.24
2023-02-09T11:14:54.261Z,12.27
2023-02-09T11:17:37.532Z,12.28
2023-02-09T11:20:14.927Z,12.27
2023-02-09T11:22:58.468Z,12.27
2023-02-09T11:25:35.906Z,12.27
2023-02-09T11:28:19.639Z,12.28
2023-02-09T11:31:04.334Z,12.27
2023-02-09T11:33:57.992Z,12.27
2023-02-09T11:36:47.618Z,12.27
2023-02-09T11:39:47.344Z,12.29
2023-02-09T11:42:38.414Z,12.34
2023-02-09T11:45:11.247Z,12.39
2023-02-09T11:47:52.509Z,12.42
2023-02-09T11:50:28.611Z,12.45
2023-02-09T11:53:04.072Z,12.46
2023-02-09T11:55:39.051Z,12.42
2023-02-09T11:58:42.600Z,12.37
2023-02-09T12:01:35.434Z,12.34
2023-02-09T12:04:09.324Z,12.32
2023-02-09T12:06:44.555Z,12.28
2023-02-09T12:09:28.178Z,12.24
2023-02-09T12:12:02.725Z,12.26
2023-02-09T12:14:30.890Z,12.30
2023-02-09T12:17:08.133Z,12.32
2023-02-09T12:19:38.021Z,12.29
2023-02-09T12:22:34.546Z,12.26
2023-02-09T12:25:14.394Z,12.22
2023-02-09T12:27:43.894Z,12.22
2023-02-09T12:30:40.364Z,12.22
2023-02-09T12:33:24.603Z,12.18
2023-02-09T12:36:12.962Z,12.14
2023-02-09T12:38:41.351Z,12.11
2023-02-09T12:41:09.927Z,12.08
2023-02-09T12:43:40.291Z,12.05
2023-02-09T12:46:11.938Z,12.03
2023-02-09T12:48:51.974Z,12.01
2023-02-09T12:51:37.414Z,11.99
2023-02-09T12:54:35.692Z,11.97
2023-02-09T12:57:16.077Z,11.91
2023-02-09T12:59:53.139Z,11.82
2023-02-09T13:02:38.421Z,11.77
2023-02-09T13:05:19.155Z,11.77
2023-02-09T13:08:09.198Z,11.76
2023-02-09T13:10:59.613Z,11.74
2023-02-09T13:13:48.336Z,11.73
2023-02-09T13:16:22.781Z,11.69
2023-02-09T13:19:12.505Z,11.65
2023-02-09T13:22:01.624Z,11.62
2023-02-09T13:24:37.767Z,11.58
2023-02-09T13:27:20.365Z,11.52
2023-02-09T13:29:50.056Z,11.48
2023-02-09T13:32:18.174Z,11.47
2023-02-09T13:35:01.810Z,11.45
2023-02-09T13:37:47.840Z,11.40
2023-02-09T13:40:24.284Z,11.34
2023-02-09T13:43:12.048Z,11.28
2023-02-09T13:45:49.515Z,11.25
2023-02-09T13:48:25.870Z,11.20
2023-02-09T13:50:55.353Z,11.15
2023-02-09T13:53:25.013Z,11.08
2023-02-09T13:55:54.095Z,11.01
2023-02-09T13:58:24.609Z,10.96
2023-02-09T14:00:55.028Z,10.92
2023-02-09T14:03:35.755Z,10.85
2023-02-09T14:06:20.427Z,10.81
2023-02-09T14:08:50.065Z,10.79
2023-02-09T14:11:24.377Z,10.76
2023-02-09T14:14:02.380Z,10.73
2023-02-09T14:16:31.941Z,10.70
2023-02-09T14:19:26.760Z,10.66
2023-02-09T14:21:55.338Z,10.63
2023-02-09T14:24:25.242Z,10.58
2023-02-09T14:27:15.302Z,10.55
2023-02-09T14:29:47.805Z,10.50
2023-02-09T14:32:45.568Z,10.47
2023-02-09T14:35:35.092Z,10.44
2023-02-09T14:38:03.330Z,10.42
2023-02-09T14:40:34.769Z,10.39
2023-02-09T14:43:03.899Z,10.33
2023-02-09T14:45:43.468Z,10.29
2023-02-09T14:48:24.854Z,10.25
2023-02-09T14:51:10.731Z,10.21
2023-02-09T14:53:38.955Z,10.16
2023-02-09T14:56:07.330Z,10.11
2023-02-09T14:58:35.339Z,10.08
2023-02-09T15:01:03.775Z,10.03
2023-02-09T15:03:32.017Z,9.99
2023-02-09T15:06:02.439Z,9.94
2023-02-09T15:08:31.687Z,9.91
2023-02-09T15:11:01.342Z,9.86
2023-02-09T15:13:30.675Z,9.82
2023-02-09T15:15:58.994Z,9.80
2023-02-09T15:18:27.191Z,9.77
2023-02-09T15:20:55.834Z,9.73
2023-02-09T15:23:24.067Z,9.69
2023-02-09T15:25:52.113Z,9.65
2023-02-09T15:28:28.428Z,9.61
2023-02-09T15:30:58.158Z,9.58
2023-02-09T15:33:27.393Z,9.54
2023-02-09T15:35:58.974Z,9.50
2023-02-09T15:38:28.284Z,9.47
2023-02-09T15:41:15.554Z,9.43
2023-02-09T15:44:03.924Z,9.39
2023-02-09T15:47:07.568Z,9.33
2023-02-09T15:49:36.024Z,9.27
2023-02-09T15:52:04.171Z,9.22
2023-02-09T15:54:32.499Z,9.19
2023-02-09T15:57:01.162Z,9.15
2023-02-09T15:59:29.269Z,9.13
2023-02-09T16:02:00.010Z,9.10
2023-02-09T16:04:28.445Z,9.07
2023-02-09T16:06:56.901Z,9.04
2023-02-09T18:03:20.174Z,2.40
2023-02-09T18:05:57.664Z,5.34
2023-02-09T18:08:26.604Z,5.81
2023-02-09T18:10:56.476Z,6.02
2023-02-09T18:13:25.378Z,6.15
2023-02-09T18:15:52.152Z,6.25
2023-02-09T18:18:19.582Z,6.35
2023-02-09T18:20:47.885Z,6.42
2023-02-09T18:23:15.421Z,6.46
2023-02-09T18:25:42.575Z,6.50
2023-02-09T18:28:09.529Z,6.53
2023-02-09T18:30:37.790Z,6.55
2023-02-09T18:33:05.951Z,6.56
2023-02-09T18:35:35.259Z,6.58
2023-02-09T18:38:03.122Z,6.58
2023-02-09T18:40:31.828Z,6.58
2023-02-09T18:42:59.989Z,6.57
2023-02-09T18:45:27.142Z,6.57
2023-02-09T18:47:54.071Z,6.56
2023-02-09T18:50:23.421Z,6.55
2023-02-09T18:52:59.051Z,6.56
2023-02-09T18:55:29.060Z,6.58
2023-02-09T18:57:57.750Z,6.59
2023-02-09T19:00:24.690Z,6.59
2023-02-09T19:02:53.602Z,6.58
2023-02-09T19:05:20.592Z,6.59
2023-02-09T19:07:50.552Z,6.59
2023-02-09T19:10:19.132Z,6.59
2023-02-09T19:12:49.769Z,6.59
2023-02-09T19:15:17.663Z,6.58
2023-02-09T19:17:45.297Z,6.56
2023-02-09T19:20:18.191Z,6.54
2023-02-09T19:22:47.076Z,6.54
2023-02-09T19:25:14.541Z,6.51
2023-02-09T19:27:41.771Z,6.50
2023-02-09T19:30:13.162Z,6.48
2023-02-09T19:32:41.114Z,6.46
2023-02-09T19:35:08.487Z,6.43
2023-02-09T19:37:37.064Z,6.39
2023-02-09T19:40:10.278Z,6.35
2023-02-09T19:42:37.044Z,6.32
2023-02-09T19:45:04.371Z,6.28
2023-02-09T19:47:31.835Z,6.28
2023-02-09T19:49:59.880Z,6.26
2023-02-09T19:52:27.539Z,6.24
2023-02-09T19:54:56.009Z,6.22
2023-02-09T19:57:25.291Z,6.22
2023-02-09T19:59:52.675Z,6.21
2023-02-09T20:02:19.564Z,6.20
2023-02-09T20:04:46.878Z,6.20
2023-02-09T20:07:14.353Z,6.18
2023-02-09T20:09:41.636Z,6.16
2023-02-09T20:12:09.235Z,6.14
2023-02-09T20:14:36.201Z,6.12
2023-02-09T20:17:02.965Z,6.10
2023-02-09T20:19:33.727Z,6.09
2023-02-09T20:22:02.468Z,6.06
2023-02-09T20:24:29.716Z,6.02
2023-02-09T20:26:56.681Z,5.99
2023-02-09T20:29:23.611Z,5.95
2023-02-09T20:31:50.427Z,5.92
2023-02-09T20:34:17.580Z,5.92
2023-02-09T20:36:45.168Z,5.91
2023-02-09T20:39:16.941Z,5.90
2023-02-09T20:42:04.610Z,5.88
2023-02-09T20:44:51.167Z,5.86
2023-02-09T20:47:18.351Z,5.85
2023-02-09T20:49:45.306Z,5.83
2023-02-09T20:52:12.272Z,5.81
2023-02-09T20:54:39.329Z,5.79
2023-02-09T20:57:06.064Z,5.77
2023-02-09T20:59:33.537Z,5.76
2023-02-09T21:02:00.446Z,5.75
2023-02-09T21:04:29.447Z,5.74
2023-02-09T21:06:57.503Z,5.72
2023-02-09T21:09:28.726Z,5.70
2023-02-09T21:11:59.259Z,5.68
2023-02-09T21:14:27.854Z,5.65
2023-02-09T21:17:08.009Z,5.63
2023-02-09T21:19:34.828Z,5.60
2023-02-09T21:22:01.893Z,5.60
2023-02-09T21:24:28.729Z,5.56
2023-02-09T21:26:55.821Z,5.54
2023-02-09T21:29:22.770Z,5.51
2023-02-09T21:31:51.404Z,5.48
2023-02-09T21:34:18.481Z,5.45
2023-02-09T21:36:45.231Z,5.44
2023-02-09T21:39:12.557Z,5.43
2023-02-09T21:41:58.006Z,5.42
2023-02-09T21:44:24.776Z,5.40
2023-02-09T21:46:53.191Z,5.38
2023-02-09T21:49:20.356Z,5.35
2023-02-09T21:51:47.242Z,5.33
2023-02-09T21:54:15.334Z,5.32
2023-02-09T21:56:42.426Z,5.32
2023-02-09T21:59:09.576Z,5.31
2023-02-09T22:01:38.872Z,5.29
2023-02-09T22:04:06.735Z,5.27
2023-02-09T22:06:34.113Z,5.26
2023-02-09T22:09:05.507Z,5.24
2023-02-09T22:11:33.023Z,5.24
2023-02-09T22:14:00.019Z,5.24
2023-02-09T22:16:27.194Z,5.22
2023-02-09T22:18:53.867Z,5.20
2023-02-09T22:21:25.258Z,5.19
2023-02-09T22:23:52.460Z,5.17
2023-02-09T22:26:19.596Z,5.18
2023-02-09T22:28:46.562Z,5.18
2023-02-09T22:31:15.320Z,5.17
2023-02-09T22:33:42.302Z,5.17
2023-02-09T22:36:14.677Z,5.15
2023-02-09T22:38:41.458Z,5.14
2023-02-09T22:41:20.722Z,5.21
2023-02-09T22:43:50.976Z,5.15
2023-02-09T22:46:18.961Z,5.11
2023-02-09T22:48:52.796Z,5.10
2023-02-09T22:51:19.853Z,5.12
2023-02-09T22:53:47.211Z,5.11
2023-02-09T22:56:14.155Z,5.09
2023-02-09T22:58:41.076Z,5.07
2023-02-09T23:01:08.574Z,5.07
2023-02-09T23:03:36.363Z,5.07
2023-02-09T23:12:27.798Z,5.19
2023-02-09T23:14:57.180Z,5.15
2023-02-09T23:17:25.378Z,5.14
2023-02-09T23:19:53.837Z,5.14
2023-02-09T23:22:22.070Z,5.14
2023-02-09T23:24:50.202Z,5.14
2023-02-09T23:27:19.581Z,5.13
2023-02-09T23:29:48.447Z,5.12
2023-02-09T23:32:16.657Z,5.12
2023-02-09T23:34:45.000Z,5.10
2023-02-09T23:37:19.099Z,5.09
2023-02-09T23:39:56.886Z,5.07
2023-02-09T23:42:25.244Z,5.06
2023-02-09T23:44:54.003Z,5.05
2023-02-09T23:47:22.219Z,5.05
2023-02-09T23:49:50.859Z,5.06
2023-02-09T23:52:19.038Z,5.05
2023-02-09T23:54:47.840Z,5.04
2023-02-09T23:57:15.880Z,5.02
2023-02-09T23:59:44.319Z,5.02
